Weather History for KLRO - January, 2013

Change the Weather History Date:

Thursday, January 24, 2013

  Actual Average (KCHS) Record (KCHS)
Temperature  
Mean Temperature 50 °F 48 °F  
Max Temperature 66 °F 59 °F 79 °F (1950)
Min Temperature 35 °F 38 °F 17 °F (2003)
Degree Days  
Heating Degree Days 14 17  
Month to date heating degree days 408  
Since 1 July heating degree days 1146  
Cooling Degree Days 0 0  
Month to date cooling degree days 0  
Year to date cooling degree days 0  
Moisture  
Dew Point 35 °F    
Average Humidity 55    
Maximum Humidity 72    
Minimum Humidity 32    
Precipitation  
Precipitation 0.00 in 0.13 in 2.12 in (1958)
Month to date precipitation 2.88  
Year to date precipitation 2.88  
Sea Level Pressure  
Sea Level Pressure 30.23 in    
Wind  
Wind Speed 9 mph (NW)    
Max Wind Speed 17 mph    
Max Gust Speed 28 mph    
Visibility 10 miles    
Events      
T = Trace of Precipitation, MM = Missing Value Source: NWS Daily Summary

Daily Weather History Graph

Daily Weather History Graph

Search for Another Location

Airport or City:

Trip Planner

Search our weather history database for the weather conditions in past years. The results will help you decide how hot, cold, wet, or windy it might be!

Date:

Astronomy

Jan. 24, 2013 Rise Set
Actual Time 7:18 AM EST 5:44 PM EST
Civil Twilight 6:52 AM EST 6:10 PM EST
Nautical Twilight 6:22 AM EST 6:40 PM EST
Astronomical Twilight 5:53 AM EST 7:09 PM EST
Moon 3:46 PM EST (1/24) 5:13 AM EST (1/24)
Length of Visible Light 11h 18m
Length of Day
10h 25m
Waxing Gibbous, 94% of the Moon is Illuminated
Jan 24
Waxing Gibbous
Jan 26
Full
Feb 3
Last Quarter
Feb 10
New
Feb 17
First Quarter

Hourly Weather History & Observations

Time (EST) Temp. Windchill Dew Point Humidity Pressure Visibility Wind Dir Wind Speed Gust Speed Precip Events Conditions
12:15 AM 46.4 °F 44.3 °F 35.6 °F 66% 30.19 in 10.0 mi SW 4.6 mph - N/A   Clear
12:35 AM 46.4 °F 42.9 °F 35.6 °F 66% 30.18 in 10.0 mi SW 6.9 mph - N/A   Clear
12:55 AM 48.2 °F - 35.6 °F 62% 30.18 in 10.0 mi WSW 5.8 mph - N/A   Clear
1:15 AM 48.2 °F - 35.6 °F 62% 30.17 in 9.0 mi SW 6.9 mph - N/A   Clear
1:35 AM 48.2 °F - 37.4 °F 66% 30.17 in 9.0 mi WSW 8.1 mph - N/A   Clear
1:55 AM 48.2 °F - 37.4 °F 66% 30.17 in 10.0 mi SW 6.9 mph - N/A   Clear
2:15 AM 48.2 °F - 37.4 °F 66% 30.16 in 9.0 mi SW 10.4 mph 16.1 mph N/A   Clear
2:35 AM 48.2 °F - 37.4 °F 66% 30.16 in 9.0 mi WSW 10.4 mph - N/A   Clear
2:55 AM 48.2 °F - 39.2 °F 71% 30.15 in 10.0 mi SW 10.4 mph 16.1 mph N/A   Partly Cloudy
3:15 AM 50.0 °F - 39.2 °F 66% 30.14 in 10.0 mi WSW 10.4 mph 17.3 mph N/A   Clear
3:35 AM 50.0 °F - 39.2 °F 66% 30.13 in 9.0 mi WSW 11.5 mph 17.3 mph N/A   Partly Cloudy
3:55 AM 50.0 °F - 39.2 °F 66% 30.13 in 9.0 mi WSW 8.1 mph 16.1 mph N/A   Scattered Clouds
4:15 AM 48.2 °F - 39.2 °F 71% 30.12 in 9.0 mi WSW 8.1 mph - N/A   Partly Cloudy
4:55 AM 48.2 °F - 39.2 °F 71% 30.11 in 9.0 mi SW 8.1 mph - N/A   Clear
5:15 AM 50.0 °F - 39.2 °F 66% 30.11 in 9.0 mi WSW 8.1 mph - N/A   Clear
5:35 AM 50.0 °F - 41.0 °F 71% 30.11 in 10.0 mi WSW 10.4 mph - N/A   Clear
5:55 AM 51.8 °F - 41.0 °F 67% 30.11 in 9.0 mi WSW 10.4 mph - N/A   Clear
6:15 AM 51.8 °F - 42.8 °F 71% 30.12 in 9.0 mi West 9.2 mph - N/A   Clear
6:35 AM 51.8 °F - 42.8 °F 71% 30.12 in 10.0 mi West 8.1 mph - N/A   Clear
6:55 AM 51.8 °F - 42.8 °F 71% 30.12 in 10.0 mi WSW 9.2 mph - N/A   Clear
7:15 AM 51.8 °F - 42.8 °F 71% 30.12 in 10.0 mi West 9.2 mph - N/A   Clear
7:35 AM 51.8 °F - 42.8 °F 71% 30.12 in 8.0 mi WSW 9.2 mph 16.1 mph N/A   Clear
7:55 AM 51.8 °F - 42.8 °F 71% 30.12 in 9.0 mi West 10.4 mph 23.0 mph N/A   Clear
8:15 AM 53.6 °F - 44.6 °F 72% 30.13 in 8.0 mi West 11.5 mph 18.4 mph N/A   Clear
8:35 AM 53.6 °F - 44.6 °F 72% 30.14 in 9.0 mi West 11.5 mph 20.7 mph N/A   Clear
8:55 AM 55.4 °F - 44.6 °F 67% 30.14 in 8.0 mi West 12.7 mph 23.0 mph N/A   Clear
9:15 AM 55.4 °F - 44.6 °F 67% 30.15 in 8.0 mi West 11.5 mph 18.4 mph N/A   Clear
9:35 AM 57.2 °F - 44.6 °F 63% 30.15 in 9.0 mi West 17.3 mph 21.9 mph N/A   Clear
9:55 AM 57.2 °F - 44.6 °F 63% 30.16 in 10.0 mi WNW 10.4 mph 27.6 mph N/A   Clear
10:15 AM 59.0 °F - 44.6 °F 59% 30.16 in 10.0 mi West 16.1 mph 23.0 mph N/A   Clear
10:55 AM 60.8 °F - 44.6 °F 55% 30.17 in 10.0 mi WNW 12.7 mph 20.7 mph N/A   Clear
11:15 AM 62.6 °F - 41.0 °F 45% 30.16 in 10.0 mi WNW 13.8 mph 23.0 mph N/A   Clear
11:35 AM 62.6 °F - 41.0 °F 45% 30.15 in 10.0 mi WNW 16.1 mph - N/A   Clear
11:55 AM 62.6 °F - 39.2 °F 42% 30.14 in 10.0 mi WNW 10.4 mph 20.7 mph N/A   Clear
12:15 PM 64.4 °F - 37.4 °F 37% 30.15 in 10.0 mi WNW 13.8 mph 24.2 mph N/A   Clear
12:35 PM 64.4 °F - 35.6 °F 34% 30.13 in 10.0 mi NW 12.7 mph 21.9 mph N/A   Clear
12:55 PM 66.2 °F - 37.4 °F 35% 30.13 in 10.0 mi NW 12.7 mph - N/A   Clear
1:15 PM 66.2 °F - 37.4 °F 35% 30.13 in 10.0 mi NW 17.3 mph 21.9 mph N/A   Clear
1:35 PM 66.2 °F - 37.4 °F 35% 30.13 in 10.0 mi NW 10.4 mph - N/A   Clear
1:55 PM 66.2 °F - 35.6 °F 32% 30.14 in 10.0 mi NNW 12.7 mph 18.4 mph N/A   Clear
2:15 PM 64.4 °F - 39.2 °F 40% 30.15 in 10.0 mi North 9.2 mph 17.3 mph N/A   Clear
2:35 PM 64.4 °F - 37.4 °F 37% 30.16 in 10.0 mi North 10.4 mph 18.4 mph N/A   Clear
2:55 PM 64.4 °F - 37.4 °F 37% 30.17 in 10.0 mi NNE 9.2 mph - N/A   Clear
3:15 PM 64.4 °F - 37.4 °F 37% 30.18 in 10.0 mi North 10.4 mph - N/A   Clear
3:35 PM 57.2 °F - 39.2 °F 51% 30.20 in 10.0 mi East 4.6 mph 20.7 mph N/A   Clear
3:55 PM 55.4 °F - 37.4 °F 51% 30.21 in 9.0 mi East 5.8 mph 21.9 mph N/A   Clear
4:15 PM 55.4 °F - 35.6 °F 47% 30.22 in 9.0 mi East 8.1 mph 16.1 mph N/A   Clear
4:35 PM 53.6 °F - 33.8 °F 47% 30.24 in 10.0 mi NNE 6.9 mph 19.6 mph N/A   Clear
4:55 PM 53.6 °F - 32.0 °F 44% 30.26 in 10.0 mi NNE 9.2 mph 18.4 mph N/A   Clear
5:15 PM 51.8 °F - 30.2 °F 44% 30.27 in 10.0 mi NE 6.9 mph 19.6 mph N/A   Clear
5:35 PM 48.2 °F - 30.2 °F 50% 30.30 in 10.0 mi NE 9.2 mph - N/A   Clear
5:55 PM 48.2 °F - 28.4 °F 46% 30.32 in 10.0 mi NE 6.9 mph - N/A   Clear
6:15 PM 46.4 °F - 28.4 °F 50% 30.32 in 10.0 mi Calm Calm - N/A   Clear
6:35 PM 46.4 °F 43.5 °F 26.6 °F 46% 30.35 in 10.0 mi NE 5.8 mph - N/A   Clear
6:55 PM 44.6 °F 43.1 °F 26.6 °F 49% 30.36 in 10.0 mi East 3.5 mph - N/A   Clear
7:15 PM 44.6 °F 40.2 °F 26.6 °F 49% 30.37 in 10.0 mi NE 8.1 mph - N/A   Clear
7:35 PM 44.6 °F 39.2 °F 23.0 °F 43% 30.39 in 10.0 mi NE 10.4 mph 18.4 mph N/A   Clear
8:15 PM 42.8 °F 40.1 °F 23.0 °F 46% 30.41 in 10.0 mi NE 4.6 mph - N/A   Clear
8:35 PM 42.8 °F 38.0 °F 21.2 °F 42% 30.41 in 10.0 mi NE 8.1 mph 20.7 mph N/A   Clear
8:55 PM 41.0 °F 36.4 °F 21.2 °F 45% 30.43 in 10.0 mi NE 6.9 mph 18.4 mph N/A   Clear
9:15 PM 39.2 °F 33.0 °F 21.2 °F 49% 30.43 in 10.0 mi NE 9.2 mph 17.3 mph N/A   Clear
9:35 PM 39.2 °F 31.6 °F 21.2 °F 49% 30.44 in 10.0 mi NE 12.7 mph 17.3 mph N/A   Clear
9:55 PM 39.2 °F 34.2 °F 23.0 °F 52% 30.45 in 10.0 mi NNE 6.9 mph 20.7 mph N/A   Clear
10:15 PM 37.4 °F 30.8 °F 23.0 °F 56% 30.46 in 10.0 mi NE 9.2 mph 18.4 mph N/A   Clear
10:35 PM 37.4 °F 30.8 °F 23.0 °F 56% 30.47 in 10.0 mi NE 9.2 mph 18.4 mph N/A   Clear
10:55 PM 37.4 °F 31.4 °F 23.0 °F 56% 30.48 in 10.0 mi NE 8.1 mph - N/A   Clear
11:15 PM 35.6 °F 30.7 °F 23.0 °F 60% 30.47 in 10.0 mi NNE 5.8 mph - N/A   Clear
11:35 PM 35.6 °F 29.9 °F 23.0 °F 60% 30.48 in 10.0 mi NNE 6.9 mph - N/A   Clear
11:55 PM 35.6 °F 31.7 °F 21.2 °F 56% 30.47 in 10.0 mi NE 4.6 mph - N/A   Clear